Time;durP1;ratioP1;P1;durP2;ratioP2;P2;SDS_P1;SDS_P2;PMS_P1;PMS_P2;Temp;Humidity;BMP_temperature;BMP_pressure;BME280_temperature;BME280_humidity;BME280_pressure;Samples;Min_cycle;Max_cycle;Signal;HPM_P1;HPM_P2
2023/08/15 00:00:10;;;;;;;6.90;3.63;;;;;;;20.11;54.54;96575.06;5014064;28;20050;-68
2023/08/15 00:02:37;;;;;;;5.75;3.50;;;;;;;20.12;54.06;96568.78;5014105;28;20049;-68
2023/08/15 00:05:05;;;;;;;5.65;4.10;;;;;;;20.15;53.99;96578.31;5013953;28;20045;-68
2023/08/15 00:07:33;;;;;;;7.00;4.03;;;;;;;20.18;53.83;96570.97;5014057;28;20046;-68
2023/08/15 00:10:01;;;;;;;6.15;3.80;;;;;;;20.27;54.61;96574.75;5013804;28;20061;-68
2023/08/15 00:12:29;;;;;;;7.43;4.18;;;;;;;20.31;54.39;96580.63;5013813;28;20104;-68
2023/08/15 00:14:57;;;;;;;5.22;3.60;;;;;;;20.36;54.87;96581.16;5013762;28;20480;-68
2023/08/15 00:17:24;;;;;;;4.72;3.58;;;;;;;20.41;55.89;96578.13;5013721;28;20492;-68
2023/08/15 00:19:52;;;;;;;4.40;3.90;;;;;;;20.45;55.80;96572.47;5013741;28;20136;-68
2023/08/15 00:22:19;;;;;;;6.18;3.97;;;;;;;20.50;55.93;96579.22;5013810;28;20061;-68
2023/08/15 00:24:46;;;;;;;5.70;4.07;;;;;;;20.40;55.33;96569.31;5013805;28;20049;-68
2023/08/15 00:27:14;;;;;;;5.60;3.75;;;;;;;20.43;55.77;96571.72;5013639;28;20137;-68
2023/08/15 00:29:42;;;;;;;4.88;3.88;;;;;;;20.34;53.93;96580.41;5013449;28;20491;-68
2023/08/15 00:32:09;;;;;;;5.55;4.20;;;;;;;20.40;53.26;96571.09;5013606;28;20081;-68
2023/08/15 00:34:37;;;;;;;5.55;4.00;;;;;;;20.45;53.10;96567.16;5013710;28;20053;-68
2023/08/15 00:37:04;;;;;;;4.50;3.80;;;;;;;20.50;53.13;96563.28;5013509;28;20136;-68
2023/08/15 00:39:31;;;;;;;7.80;3.97;;;;;;;20.57;52.31;96562.69;5013538;28;20057;-68
2023/08/15 00:41:58;;;;;;;6.30;4.32;;;;;;;20.64;52.15;96559.53;5013457;28;20046;-68
2023/08/15 00:44:25;;;;;;;7.45;3.97;;;;;;;20.66;52.23;96558.47;5013537;28;20116;-68
2023/08/15 00:46:54;;;;;;;7.60;3.67;;;;;;;20.73;52.38;96552.63;5013426;28;20057;-68
2023/08/15 00:49:22;;;;;;;6.35;4.15;;;;;;;20.74;52.32;96557.81;5013270;28;20056;-68
2023/08/15 00:51:50;;;;;;;6.57;3.30;;;;;;;20.84;53.29;96555.31;5013387;28;20068;-68
2023/08/15 00:54:18;;;;;;;6.45;3.80;;;;;;;20.83;51.81;96557.09;5013253;28;20558;-68
2023/08/15 00:56:45;;;;;;;7.80;3.78;;;;;;;20.81;51.57;96552.88;5013236;28;20491;-68
2023/08/15 00:59:12;;;;;;;5.05;3.47;;;;;;;20.88;51.92;96545.25;5013350;28;20132;-68
2023/08/15 01:01:40;;;;;;;4.70;3.97;;;;;;;20.92;52.80;96552.06;5013312;28;20129;-68
2023/08/15 01:04:09;;;;;;;4.18;3.53;;;;;;;20.95;52.69;96552.66;5013213;28;20042;-68
2023/08/15 01:06:36;;;;;;;4.70;3.85;;;;;;;20.98;53.03;96553.38;5013238;28;20054;-68
2023/08/15 01:09:05;;;;;;;4.90;4.00;;;;;;;20.99;53.78;96563.91;5013166;28;20069;-68
2023/08/15 01:11:36;;;;;;;5.88;4.03;;;;;;;20.98;53.35;96561.34;5013056;28;20472;-68
2023/08/15 01:14:08;;;;;;;4.63;3.53;;;;;;;21.06;53.67;96561.56;5013089;28;20042;-68
2023/08/15 01:16:43;;;;;;;5.25;3.70;;;;;;;21.12;54.65;96558.44;5013078;28;20488;-68
2023/08/15 01:19:28;;;;;;;8.57;4.50;;;;;;;21.17;54.17;96556.25;5013159;28;20535;-68
2023/08/15 01:21:58;;;;;;;4.18;3.78;;;;;;;21.16;54.71;96556.38;5013637;28;20085;-68
2023/08/15 01:24:28;;;;;;;4.53;3.83;;;;;;;21.16;55.57;96559.03;5017063;28;20049;-68
2023/08/15 01:26:55;;;;;;;6.78;4.20;;;;;;;21.15;53.83;96552.00;5016749;28;20046;-68
2023/08/15 01:29:22;;;;;;;8.07;4.40;;;;;;;21.21;53.96;96562.16;5016866;28;20091;-69
2023/08/15 01:31:56;;;;;;;6.22;4.13;;;;;;;21.24;55.03;96551.25;5016881;28;20132;-69
2023/08/15 01:34:29;;;;;;;9.13;4.68;;;;;;;21.23;54.31;96546.94;5016874;28;20041;-68
2023/08/15 01:37:08;;;;;;;7.90;4.22;;;;;;;21.24;53.69;96553.06;5016698;28;20046;-68
2023/08/15 01:39:39;;;;;;;7.88;4.28;;;;;;;21.20;54.13;96537.34;5016652;28;20046;-68
2023/08/15 01:42:07;;;;;;;6.97;3.85;;;;;;;21.18;55.06;96549.09;5016639;28;20480;-68
2023/08/15 01:44:36;;;;;;;6.60;4.43;;;;;;;21.15;53.89;96550.19;5016671;28;20399;-68
2023/08/15 01:47:04;;;;;;;6.20;4.32;;;;;;;21.13;54.54;96544.16;5016557;28;20086;-68
2023/08/15 01:49:31;;;;;;;5.43;4.75;;;;;;;21.14;54.53;96537.88;5016434;28;20050;-68
2023/08/15 01:51:58;;;;;;;6.82;4.60;;;;;;;21.21;57.46;96551.50;5016527;28;20050;-68
2023/08/15 01:54:25;;;;;;;5.63;4.00;;;;;;;21.17;56.73;96545.63;5015586;28;20455;-68
2023/08/15 01:56:54;;;;;;;6.93;4.65;;;;;;;21.19;57.20;96537.50;5016299;28;20053;-68
2023/08/15 01:59:21;;;;;;;5.40;4.72;;;;;;;21.16;58.05;96543.91;5016312;28;20054;-68
2023/08/15 02:01:48;;;;;;;6.32;4.28;;;;;;;21.07;54.98;96547.34;5016347;28;20077;-68
2023/08/15 02:04:15;;;;;;;13.55;4.72;;;;;;;21.04;55.22;96543.09;5016271;28;20050;-68
2023/08/15 02:06:42;;;;;;;7.45;4.72;;;;;;;21.01;54.50;96537.19;5016092;28;20049;-68
2023/08/15 02:09:09;;;;;;;5.68;4.55;;;;;;;21.04;55.16;96531.63;5016200;28;20407;-68
2023/08/15 02:11:36;;;;;;;5.35;3.80;;;;;;;21.10;55.40;96530.28;5016084;28;20058;-68
2023/08/15 02:14:05;;;;;;;6.57;4.50;;;;;;;21.04;53.29;96531.63;5016070;28;20050;-68
2023/08/15 02:16:32;;;;;;;5.15;4.03;;;;;;;21.14;53.08;96537.88;5016054;28;20561;-68
2023/08/15 02:18:59;;;;;;;11.02;4.03;;;;;;;21.17;53.45;96539.44;5015965;28;20050;-68
2023/08/15 02:21:26;;;;;;;6.28;4.20;;;;;;;21.16;53.20;96540.41;5015787;28;20046;-68
2023/08/15 02:23:53;;;;;;;5.85;3.88;;;;;;;21.17;52.90;96539.44;5015829;28;20078;-68
2023/08/15 02:26:20;;;;;;;7.03;4.05;;;;;;;21.16;52.49;96530.59;5015516;28;20050;-68
2023/08/15 02:28:47;;;;;;;7.00;4.15;;;;;;;21.21;53.36;96539.06;5015870;28;20046;-68
2023/08/15 02:31:16;;;;;;;4.93;4.18;;;;;;;21.24;53.09;96537.97;5015596;28;20052;-68
2023/08/15 02:33:43;;;;;;;7.00;4.10;;;;;;;21.23;53.02;96525.66;5014527;28;20103;-68
2023/08/15 02:36:10;;;;;;;7.75;4.47;;;;;;;21.25;53.08;96518.38;5015747;28;20081;-68
2023/08/15 02:38:37;;;;;;;4.38;3.80;;;;;;;21.33;55.55;96531.91;5015629;28;20050;-68
2023/08/15 02:41:04;;;;;;;11.45;4.28;;;;;;;21.31;53.14;96535.66;5015512;28;20416;-68
2023/08/15 02:43:32;;;;;;;4.78;4.10;;;;;;;21.25;53.28;96533.50;5015583;28;20181;-68
2023/08/15 02:45:59;;;;;;;5.05;4.50;;;;;;;21.28;54.08;96526.09;5015300;28;20089;-68
2023/08/15 02:48:27;;;;;;;6.30;4.00;;;;;;;21.28;54.49;96531.41;5015275;28;20129;-68
2023/08/15 02:50:54;;;;;;;8.80;4.35;;;;;;;21.26;54.06;96537.84;5015248;28;20469;-68
2023/08/15 02:53:21;;;;;;;6.53;4.15;;;;;;;21.29;53.33;96540.25;5015382;28;20050;-68
2023/08/15 02:55:51;;;;;;;5.50;4.35;;;;;;;21.32;54.15;96540.84;5015320;28;20053;-68
2023/08/15 02:58:19;;;;;;;13.63;5.05;;;;;;;21.32;53.83;96542.66;5015200;28;20050;-68
2023/08/15 03:00:46;;;;;;;6.47;3.97;;;;;;;21.38;54.23;96542.16;5015199;28;20050;-68
2023/08/15 03:03:13;;;;;;;7.03;3.92;;;;;;;21.44;54.95;96548.78;5015111;28;20057;-68
2023/08/15 03:05:41;;;;;;;8.15;4.82;;;;;;;21.48;57.21;96541.38;5015111;28;20092;-67
2023/08/15 03:08:08;;;;;;;15.55;5.60;;;;;;;21.44;58.51;96535.50;5015064;28;20045;-69
2023/08/15 03:10:36;;;;;;;21.75;6.20;;;;;;;21.40;60.78;96540.22;5014981;28;20513;-68
2023/08/15 03:13:03;;;;;;;18.35;6.20;;;;;;;21.36;66.80;96552.06;5014927;28;20050;-69
2023/08/15 03:15:31;;;;;;;14.35;6.18;;;;;;;21.00;67.18;96551.44;5014734;28;20514;-69
2023/08/15 03:17:58;;;;;;;14.63;6.53;;;;;;;20.81;70.21;96553.75;5014782;28;20096;-67
2023/08/15 03:20:25;;;;;;;18.45;7.15;;;;;;;20.76;71.65;96545.28;5014777;28;20137;-69
2023/08/15 03:22:54;;;;;;;11.57;6.80;;;;;;;20.61;71.32;96543.81;5014796;28;20104;-68
2023/08/15 03:25:21;;;;;;;15.35;6.72;;;;;;;20.39;72.63;96546.38;5014471;28;20534;-68
2023/08/15 03:27:49;;;;;;;15.00;6.55;;;;;;;20.30;74.17;96544.44;5014658;28;20459;-69
2023/08/15 03:30:16;;;;;;;12.02;7.43;;;;;;;20.27;75.08;96545.53;5014479;28;20052;-69
2023/08/15 03:32:43;;;;;;;16.33;6.57;;;;;;;20.29;75.43;96561.34;5014593;28;20045;-69
2023/08/15 03:35:10;;;;;;;11.95;6.70;;;;;;;20.23;75.94;96541.44;5014722;28;20077;-68
2023/08/15 03:37:38;;;;;;;40.03;7.20;;;;;;;20.14;76.96;96555.41;5014386;28;20053;-68
2023/08/15 03:40:08;;;;;;;14.07;7.47;;;;;;;20.04;77.00;96560.56;5014455;28;20100;-67
2023/08/15 03:42:35;;;;;;;8.82;7.40;;;;;;;20.03;77.69;96550.91;5013870;28;20050;-67
2023/08/15 03:45:03;;;;;;;8.18;6.53;;;;;;;20.00;78.14;96548.44;5013987;28;20057;-69
2023/08/15 03:47:30;;;;;;;9.88;7.00;;;;;;;19.90;78.88;96541.19;5014280;28;20488;-67
2023/08/15 03:49:59;;;;;;;9.40;7.20;;;;;;;19.77;79.43;96541.28;5014438;28;20078;-68
2023/08/15 03:52:26;;;;;;;8.93;7.57;;;;;;;19.77;79.91;96543.94;5014089;28;20061;-68
2023/08/15 03:54:53;;;;;;;7.47;6.47;;;;;;;19.72;79.40;96545.25;5014077;28;20049;-67
2023/08/15 03:57:22;;;;;;;10.57;7.32;;;;;;;19.69;78.78;96552.47;5014060;28;20124;-68
2023/08/15 03:59:49;;;;;;;15.40;7.38;;;;;;;19.69;79.67;96541.03;5014048;28;20420;-69
2023/08/15 04:02:16;;;;;;;9.27;7.38;;;;;;;19.74;80.43;96543.34;5014036;28;20068;-68
2023/08/15 04:04:44;;;;;;;10.15;7.20;;;;;;;19.75;80.52;96550.31;5014142;28;20049;-68
2023/08/15 04:07:11;;;;;;;8.30;7.22;;;;;;;19.79;80.56;96543.81;5013905;28;20050;-68
2023/08/15 04:09:38;;;;;;;8.18;6.95;;;;;;;19.82;82.00;96551.53;5013821;28;20049;-69
2023/08/15 04:12:07;;;;;;;15.23;7.32;;;;;;;19.81;81.86;96550.69;5013612;28;20487;-69
2023/08/15 04:14:35;;;;;;;9.65;7.78;;;;;;;19.90;83.18;96556.28;5013706;28;20381;-68
2023/08/15 04:17:02;;;;;;;8.77;7.28;;;;;;;19.83;81.32;96553.22;5013841;28;20046;-69
2023/08/15 04:19:30;;;;;;;8.13;6.47;;;;;;;19.85;82.69;96551.31;5013876;28;20061;-68
2023/08/15 04:21:58;;;;;;;8.70;6.93;;;;;;;19.91;82.57;96548.22;5013629;28;20057;-68
2023/08/15 04:24:25;;;;;;;7.65;6.88;;;;;;;19.93;82.53;96550.75;5013616;28;20056;-68
2023/08/15 04:26:52;;;;;;;8.10;7.30;;;;;;;19.97;82.82;96549.53;5013425;28;20061;-69
2023/08/15 04:29:19;;;;;;;8.65;6.97;;;;;;;20.02;81.96;96551.88;5013486;28;20046;-68
2023/08/15 04:31:48;;;;;;;8.00;6.20;;;;;;;20.05;82.87;96549.81;5013512;28;20078;-67
2023/08/15 04:34:15;;;;;;;8.20;7.43;;;;;;;20.02;82.68;96542.09;5013421;28;20046;-68
2023/08/15 04:36:46;;;;;;;8.10;7.20;;;;;;;20.03;83.14;96549.09;5013570;28;20057;-68
2023/08/15 04:39:13;;;;;;;9.02;6.88;;;;;;;20.06;82.98;96556.84;5013487;28;20462;-68
2023/08/15 04:41:41;;;;;;;8.93;7.20;;;;;;;20.12;83.80;96552.88;5013401;28;20052;-68
2023/08/15 04:44:10;;;;;;;8.02;7.22;;;;;;;20.18;83.66;96556.84;5013460;28;20065;-67
2023/08/15 04:46:37;;;;;;;7.75;6.80;;;;;;;20.23;83.93;96552.03;5013340;28;20046;-68
2023/08/15 04:49:06;;;;;;;8.10;7.40;;;;;;;20.26;83.59;96557.09;5013337;28;20396;-68
2023/08/15 04:51:34;;;;;;;8.50;6.78;;;;;;;20.31;82.64;96549.63;5013303;28;20089;-68
2023/08/15 04:54:01;;;;;;;7.72;7.03;;;;;;;20.39;83.32;96546.38;5013193;28;20483;-69
2023/08/15 04:56:29;;;;;;;7.05;6.35;;;;;;;20.47;83.89;96551.09;5012687;28;20050;-69
2023/08/15 04:58:57;;;;;;;11.00;7.32;;;;;;;20.53;84.23;96547.09;5013076;28;20053;-68
2023/08/15 05:01:24;;;;;;;11.15;5.82;;;;;;;20.54;81.26;96543.47;5013222;28;20104;-68
2023/08/15 05:03:52;;;;;;;6.35;5.85;;;;;;;20.59;82.05;96549.28;5013208;28;20455;-68
2023/08/15 05:06:20;;;;;;;7.07;5.80;;;;;;;20.64;82.46;96546.25;5013157;28;20099;-68
2023/08/15 05:08:48;;;;;;;9.82;6.03;;;;;;;20.66;80.48;96549.63;5013173;28;20412;-68
2023/08/15 05:11:15;;;;;;;7.82;6.65;;;;;;;20.66;80.23;96545.19;5012942;28;20076;-67
2023/08/15 05:13:43;;;;;;;7.30;6.53;;;;;;;20.69;80.24;96539.63;5013096;28;20050;-68
2023/08/15 05:16:10;;;;;;;7.88;6.90;;;;;;;20.79;80.73;96544.19;5013053;28;20045;-68
2023/08/15 05:18:38;;;;;;;6.90;6.22;;;;;;;20.90;81.32;96544.22;5013054;28;20053;-69
2023/08/15 05:21:05;;;;;;;8.55;6.45;;;;;;;20.99;82.54;96537.31;5013028;28;20132;-67
2023/08/15 05:23:35;;;;;;;6.57;5.95;;;;;;;21.05;81.99;96541.28;5012978;28;20081;-68
2023/08/15 05:26:02;;;;;;;7.20;5.88;;;;;;;21.14;81.80;96542.34;5012784;28;20046;-68
2023/08/15 05:28:29;;;;;;;6.70;6.00;;;;;;;21.27;82.02;96544.84;5012955;28;20400;-68
2023/08/15 05:30:56;;;;;;;6.75;6.15;;;;;;;21.34;80.55;96544.22;5012855;28;20128;-69
2023/08/15 05:33:24;;;;;;;6.53;5.93;;;;;;;21.41;79.75;96541.91;5012923;28;20046;-68
2023/08/15 05:35:52;;;;;;;8.05;5.88;;;;;;;21.55;80.36;96542.59;5012988;28;20049;-69
2023/08/15 05:38:19;;;;;;;6.18;5.57;;;;;;;21.69;80.58;96544.09;5012860;28;20129;-69
2023/08/15 05:40:52;;;;;;;6.85;6.15;;;;;;;21.77;79.85;96541.69;5012675;28;20547;-69
2023/08/15 05:43:19;;;;;;;7.78;6.22;;;;;;;21.83;80.29;96540.31;5012968;28;20129;-68
2023/08/15 05:45:48;;;;;;;7.38;6.10;;;;;;;21.93;81.34;96541.22;5012772;28;20092;-68
2023/08/15 05:48:16;;;;;;;7.72;5.78;;;;;;;22.04;81.50;96531.47;5012721;28;20045;-68
2023/08/15 05:50:44;;;;;;;6.85;6.25;;;;;;;22.14;81.71;96542.19;5012869;28;20049;-68
2023/08/15 05:53:12;;;;;;;8.35;6.20;;;;;;;22.34;82.39;96548.47;5012774;28;20050;-68
2023/08/15 05:55:40;;;;;;;8.18;6.20;;;;;;;22.51;80.94;96543.50;5011905;28;20479;-69
2023/08/15 05:58:09;;;;;;;6.05;5.05;;;;;;;22.87;78.02;96543.94;5012682;28;20068;-68
2023/08/15 06:00:38;;;;;;;7.85;5.70;;;;;;;23.14;78.64;96541.63;5012679;28;20096;-68
2023/08/15 06:03:05;;;;;;;7.60;4.88;;;;;;;23.32;71.47;96549.78;5012759;28;20663;-69
2023/08/15 06:05:33;;;;;;;5.75;5.25;;;;;;;23.52;75.45;96553.34;5012647;28;20056;-69
2023/08/15 06:08:01;;;;;;;5.72;5.10;;;;;;;23.79;76.17;96561.63;5013156;28;20049;-69
2023/08/15 06:10:29;;;;;;;9.35;6.28;;;;;;;23.93;75.36;96552.38;5016157;28;20073;-69
2023/08/15 06:12:56;;;;;;;7.82;4.85;;;;;;;23.93;65.40;96555.03;5016052;28;20050;-69
2023/08/15 06:15:26;;;;;;;5.30;4.63;;;;;;;23.94;67.23;96557.56;5016026;28;20046;-69
2023/08/15 06:17:54;;;;;;;8.73;4.63;;;;;;;23.86;60.79;96560.09;5016019;28;20081;-68
2023/08/15 06:20:24;;;;;;;5.38;4.22;;;;;;;23.84;61.09;96556.72;5015900;28;20045;-68
2023/08/15 06:22:52;;;;;;;8.02;5.05;;;;;;;23.80;61.04;96552.63;5015953;28;20071;-68
2023/08/15 06:25:20;;;;;;;5.13;4.38;;;;;;;23.83;60.39;96561.22;5015531;28;20072;-67
2023/08/15 06:27:47;;;;;;;12.82;5.22;;;;;;;24.01;61.84;96552.47;5015725;28;20488;-69
2023/08/15 06:30:15;;;;;;;5.82;5.22;;;;;;;24.19;64.14;96557.13;5015871;28;20042;-68
2023/08/15 06:32:45;;;;;;;7.88;4.90;;;;;;;24.21;61.74;96555.16;5015721;28;20053;-69
2023/08/15 06:35:13;;;;;;;5.50;4.45;;;;;;;24.34;59.16;96558.34;5015828;28;20046;-69
2023/08/15 06:37:40;;;;;;;6.95;4.63;;;;;;;24.47;59.72;96552.69;5015867;28;20050;-68
2023/08/15 06:40:09;;;;;;;7.38;4.50;;;;;;;24.48;57.82;96557.03;5015707;28;20054;-69
2023/08/15 06:42:36;;;;;;;8.82;4.93;;;;;;;24.61;57.99;96545.19;5015504;28;20532;-69
2023/08/15 06:45:08;;;;;;;5.05;4.32;;;;;;;24.81;63.55;96539.75;5015538;28;20048;-68
2023/08/15 06:47:36;;;;;;;8.00;5.18;;;;;;;24.89;58.07;96547.06;5015405;28;20119;-69
2023/08/15 06:50:09;;;;;;;6.55;4.35;;;;;;;25.10;58.89;96546.78;5015454;28;20046;-69
2023/08/15 06:52:36;;;;;;;7.63;4.85;;;;;;;25.31;57.71;96548.38;5015194;28;20050;-68
2023/08/15 06:55:06;;;;;;;4.68;3.92;;;;;;;25.48;55.08;96560.06;5015344;28;20415;-69
2023/08/15 06:57:34;;;;;;;8.13;4.70;;;;;;;25.48;56.44;96555.56;5015348;28;20125;-69
2023/08/15 07:00:01;;;;;;;4.93;4.45;;;;;;;25.58;58.67;96551.97;5015389;28;20124;-68
2023/08/15 07:02:31;;;;;;;6.53;4.32;;;;;;;25.93;53.76;96555.66;5015110;28;20488;-69
2023/08/15 07:04:58;;;;;;;6.72;4.35;;;;;;;26.12;52.18;96564.50;5015212;28;20052;-69
2023/08/15 07:07:27;;;;;;;7.05;4.80;;;;;;;26.09;52.80;96565.66;5015001;28;20050;-68
2023/08/15 07:09:54;;;;;;;7.15;4.68;;;;;;;26.12;51.83;96562.66;5015090;28;20133;-69
2023/08/15 07:12:21;;;;;;;7.38;4.00;;;;;;;25.97;52.06;96567.75;5014904;28;20054;-68
2023/08/15 07:14:48;;;;;;;5.20;4.57;;;;;;;26.00;52.44;96566.59;5015110;28;20086;-69
2023/08/15 07:17:15;;;;;;;7.45;4.95;;;;;;;26.07;53.71;96558.78;5014833;28;20053;-68
2023/08/15 07:19:43;;;;;;;5.13;4.38;;;;;;;26.20;53.16;96561.03;5014199;28;20054;-68
2023/08/15 07:22:10;;;;;;;6.43;4.10;;;;;;;26.20;51.90;96556.53;5014719;28;20408;-69
2023/08/15 07:24:39;;;;;;;8.73;4.50;;;;;;;26.22;52.36;96556.38;5014887;28;20127;-68
2023/08/15 07:27:07;;;;;;;8.85;4.70;;;;;;;26.34;52.94;96556.97;5014515;28;20057;-68
2023/08/15 07:29:34;;;;;;;11.35;5.05;;;;;;;26.48;52.36;96553.72;5014652;28;20138;-68
2023/08/15 07:32:02;;;;;;;6.30;4.65;;;;;;;26.65;52.04;96561.00;5014504;28;20103;-68
2023/08/15 07:34:30;;;;;;;5.35;4.35;;;;;;;26.67;51.07;96557.16;5014418;28;20484;-69
2023/08/15 07:36:57;;;;;;;6.88;4.28;;;;;;;26.83;50.55;96559.09;5014433;28;20065;-68
2023/08/15 07:39:26;;;;;;;6.63;4.25;;;;;;;26.92;49.74;96553.75;5014413;28;20046;-69
2023/08/15 07:41:55;;;;;;;7.00;4.70;;;;;;;27.02;50.28;96557.16;5014570;28;20104;-69
2023/08/15 07:44:23;;;;;;;4.68;4.03;;;;;;;26.96;49.52;96557.78;5014581;28;20068;-68
2023/08/15 07:46:51;;;;;;;6.85;4.43;;;;;;;26.66;48.40;96547.44;5014385;28;20053;-69
2023/08/15 07:49:22;;;;;;;7.10;3.90;;;;;;;26.59;49.35;96543.72;5014287;28;20545;-69
2023/08/15 07:51:49;;;;;;;6.57;4.15;;;;;;;26.66;50.55;96538.56;5014188;28;20057;-69
2023/08/15 07:54:17;;;;;;;5.78;3.97;;;;;;;26.81;53.06;96536.09;5014212;28;20062;-68
2023/08/15 07:56:44;;;;;;;6.38;4.40;;;;;;;26.77;50.75;96535.59;5014184;28;20050;-69
2023/08/15 07:59:13;;;;;;;7.00;4.28;;;;;;;26.74;49.24;96538.59;5014206;28;20049;-69
2023/08/15 08:01:40;;;;;;;5.78;5.00;;;;;;;26.73;49.90;96551.16;5014177;28;20045;-68
2023/08/15 08:04:08;;;;;;;6.00;4.43;;;;;;;26.77;50.34;96540.09;5013969;28;20054;-69
2023/08/15 08:06:35;;;;;;;7.40;4.40;;;;;;;26.74;49.59;96541.28;5014047;28;20054;-68
2023/08/15 08:09:05;;;;;;;4.07;3.67;;;;;;;26.75;49.18;96538.44;5014101;28;20053;-69
2023/08/15 08:11:32;;;;;;;4.45;3.60;;;;;;;26.77;48.68;96540.09;5013778;28;20104;-68
2023/08/15 08:14:10;;;;;;;5.28;4.43;;;;;;;26.85;47.93;96542.84;5013791;28;20112;-69
2023/08/15 08:16:40;;;;;;;6.63;4.00;;;;;;;26.93;48.13;96545.53;5013816;28;20061;-69
2023/08/15 08:19:07;;;;;;;7.85;4.40;;;;;;;27.04;49.82;96549.81;5013837;28;20495;-69
2023/08/15 08:21:36;;;;;;;4.88;3.95;;;;;;;27.02;48.19;96546.44;5013742;28;20099;-69
2023/08/15 08:24:05;;;;;;;8.95;4.35;;;;;;;26.98;48.56;96545.09;5013678;28;20072;-69
2023/08/15 08:26:33;;;;;;;4.43;3.85;;;;;;;26.96;48.70;96537.16;5013516;28;20408;-69
2023/08/15 08:29:00;;;;;;;6.57;4.03;;;;;;;26.94;49.02;96531.09;5013587;28;20050;-69
2023/08/15 08:31:27;;;;;;;10.23;4.95;;;;;;;27.02;49.18;96538.38;5012916;28;20443;-69
2023/08/15 08:33:56;;;;;;;5.85;4.32;;;;;;;27.12;49.40;96547.13;5013380;28;20081;-69
2023/08/15 08:36:23;;;;;;;4.68;3.72;;;;;;;27.15;48.16;96535.22;5013469;28;20112;-68
2023/08/15 08:38:51;;;;;;;4.95;3.95;;;;;;;27.25;48.65;96533.28;5013519;28;20054;-69
2023/08/15 08:41:18;;;;;;;6.07;4.07;;;;;;;27.41;48.59;96539.66;5013445;28;20046;-69
2023/08/15 08:43:46;;;;;;;7.82;3.80;;;;;;;27.68;47.11;96536.84;5013534;28;20198;-69
2023/08/15 08:46:15;;;;;;;12.18;4.45;;;;;;;27.81;47.62;96528.31;5013428;28;20085;-69
2023/08/15 08:48:43;;;;;;;9.02;3.72;;;;;;;27.87;47.65;96531.16;5013327;28;20049;-69
2023/08/15 08:51:13;;;;;;;8.68;4.60;;;;;;;27.84;47.78;96528.81;5013443;28;20053;-69
2023/08/15 08:53:40;;;;;;;9.90;4.68;;;;;;;27.86;48.03;96518.75;5013275;28;20147;-69
2023/08/15 08:56:08;;;;;;;9.85;5.00;;;;;;;27.98;47.80;96516.56;5013243;28;20400;-69
2023/08/15 08:58:39;;;;;;;7.93;4.93;;;;;;;28.17;47.60;96514.50;5013250;28;20054;-69
2023/08/15 09:01:07;;;;;;;6.22;4.50;;;;;;;28.42;48.87;96517.19;5013205;28;20084;-69
2023/08/15 09:03:34;;;;;;;8.60;4.70;;;;;;;28.95;45.26;96515.84;5013134;28;20046;-69
2023/08/15 09:06:02;;;;;;;9.27;4.60;;;;;;;29.13;45.71;96502.94;5013304;28;20444;-69
2023/08/15 09:08:31;;;;;;;6.40;4.90;;;;;;;29.23;46.25;96508.09;5013221;28;20411;-69
2023/08/15 09:10:59;;;;;;;6.30;4.57;;;;;;;29.59;45.21;96524.75;5013125;28;20081;-69
2023/08/15 09:13:26;;;;;;;5.65;4.80;;;;;;;29.42;45.04;96521.28;5013037;28;20057;-69
2023/08/15 09:15:56;;;;;;;8.05;5.25;;;;;;;29.04;44.39;96530.91;5013158;28;20125;-70
2023/08/15 09:18:24;;;;;;;6.18;5.05;;;;;;;29.03;46.82;96517.63;5013056;28;20483;-69
2023/08/15 09:20:52;;;;;;;5.97;4.47;;;;;;;29.04;45.21;96513.94;5013046;28;20046;-69
2023/08/15 09:23:19;;;;;;;7.50;4.97;;;;;;;29.06;45.80;96520.81;5013054;28;20046;-69
2023/08/15 09:25:49;;;;;;;9.05;4.65;;;;;;;29.36;44.66;96517.44;5012710;28;20062;-69
2023/08/15 09:28:16;;;;;;;10.05;5.22;;;;;;;29.70;45.30;96518.91;5013251;28;20054;-69
2023/08/15 09:30:52;;;;;;;7.55;5.25;;;;;;;30.00;44.95;96510.91;5013195;28;20053;-69
2023/08/15 09:33:20;;;;;;;9.32;5.22;;;;;;;30.29;43.77;96510.31;5012945;28;20136;-69
2023/08/15 09:35:47;;;;;;;9.85;5.28;;;;;;;30.48;42.92;96511.63;5013054;28;20495;-69
2023/08/15 09:38:16;;;;;;;12.98;5.80;;;;;;;30.44;43.51;96504.94;5012938;28;20057;-69
2023/08/15 09:40:45;;;;;;;8.57;4.93;;;;;;;30.50;43.26;96509.59;5013032;28;20050;-69
2023/08/15 09:43:17;;;;;;;9.63;4.95;;;;;;;30.38;42.26;96498.44;5014083;28;20499;-69
2023/08/15 09:45:45;;;;;;;12.10;5.40;;;;;;;30.20;43.24;96506.88;5016657;28;20454;-69
2023/08/15 09:48:13;;;;;;;5.72;4.85;;;;;;;29.83;44.14;96512.91;5016687;28;20400;-69
2023/08/15 09:50:42;;;;;;;7.03;5.03;;;;;;;29.79;43.87;96508.91;5016518;28;20502;-69
2023/08/15 09:53:11;;;;;;;6.47;4.95;;;;;;;29.83;44.59;96502.13;5016368;28;20058;-69
2023/08/15 09:55:39;;;;;;;8.40;5.18;;;;;;;29.75;44.55;96510.28;5016418;28;20107;-69
2023/08/15 09:58:07;;;;;;;8.05;5.05;;;;;;;29.61;44.34;96510.06;5016498;28;20476;-68
2023/08/15 10:00:37;;;;;;;7.75;4.60;;;;;;;29.54;46.02;96509.06;5016402;28;20042;-68
2023/08/15 10:03:11;;;;;;;8.52;5.25;;;;;;;29.75;44.83;96497.66;5016446;28;20483;-69
2023/08/15 10:05:43;;;;;;;6.03;4.20;;;;;;;29.72;43.83;96514.19;5016311;28;20145;-69
2023/08/15 10:08:11;;;;;;;6.50;4.82;;;;;;;29.44;44.93;96501.25;5016192;28;20108;-69
2023/08/15 10:10:39;;;;;;;6.50;5.43;;;;;;;29.23;45.19;96499.19;5016558;28;20041;-69
2023/08/15 10:13:08;;;;;;;9.27;5.40;;;;;;;29.14;44.38;96496.53;5016140;28;20507;-69
2023/08/15 10:15:38;;;;;;;7.15;4.80;;;;;;;29.06;45.84;96501.13;5016080;28;20042;-69
2023/08/15 10:18:07;;;;;;;10.65;4.75;;;;;;;29.04;44.91;96498.63;5016079;28;20470;-69
2023/08/15 10:20:37;;;;;;;12.00;5.25;;;;;;;28.91;45.69;96511.78;5016015;28;20400;-69
2023/08/15 10:23:09;;;;;;;8.35;4.90;;;;;;;28.90;45.44;96500.19;5015893;28;20049;-69
2023/08/15 10:25:39;;;;;;;8.32;4.90;;;;;;;28.78;46.16;96506.97;5015731;28;20137;-69
2023/08/15 10:28:09;;;;;;;4.97;4.30;;;;;;;28.72;45.72;96498.56;5015815;28;20504;-69
2023/08/15 10:30:41;;;;;;;;;;;;;;;29.09;45.95;96498.09;5016345;28;20133;-69
2023/08/15 10:33:16;;;;;;;8.95;4.60;;;;;;;29.50;44.09;96502.38;5015818;28;19943;-69
2023/08/15 10:35:50;;;;;;;6.90;4.65;;;;;;;29.66;43.62;96492.50;5015721;28;20050;-69
2023/08/15 10:38:20;;;;;;;7.47;4.65;;;;;;;29.55;43.20;96491.06;5015638;28;20057;-69
2023/08/15 10:40:48;;;;;;;10.60;4.63;;;;;;;29.40;43.65;96502.59;5015546;28;20108;-68
2023/08/15 10:43:16;;;;;;;13.15;5.68;;;;;;;29.37;44.38;96486.78;5015539;28;20129;-69
2023/08/15 10:45:49;;;;;;;7.28;4.43;;;;;;;29.06;44.60;96518.13;5015597;28;20050;-69
2023/08/15 10:48:16;;;;;;;8.40;4.88;;;;;;;28.84;45.12;96480.19;5015434;28;20048;-69
2023/08/15 10:50:46;;;;;;;7.65;4.57;;;;;;;29.10;45.38;96480.91;5015401;28;20050;-69
2023/08/15 10:53:13;;;;;;;5.40;4.20;;;;;;;29.27;44.32;96489.72;5015316;28;20054;-69
2023/08/15 10:55:41;;;;;;;9.05;4.60;;;;;;;29.56;44.48;96488.22;5014342;28;20323;-69
2023/08/15 10:58:10;;;;;;;8.32;4.50;;;;;;;29.59;43.29;96482.44;5015255;28;20503;-69
2023/08/15 11:00:40;;;;;;;9.85;4.72;;;;;;;29.48;43.20;96486.41;5015317;28;20470;-69
2023/08/15 11:03:22;;;;;;;7.07;4.63;;;;;;;29.61;43.63;96466.09;5015233;28;20427;-69
2023/08/15 11:05:51;;;;;;;8.43;4.38;;;;;;;29.68;44.04;96477.00;5014928;28;20787;-69
2023/08/15 11:08:20;;;;;;;10.57;4.70;;;;;;;29.67;42.89;96486.13;5015164;28;20100;-71
2023/08/15 11:10:50;;;;;;;8.13;4.37;;;;;;;29.58;43.47;96479.94;5015108;28;20057;-69
2023/08/15 11:13:17;;;;;;;5.22;4.53;;;;;;;29.81;42.25;96479.06;5014951;28;20050;-69
2023/08/15 11:15:45;;;;;;;5.15;4.38;;;;;;;29.76;43.06;96477.78;5015023;28;20046;-69
2023/08/15 11:18:13;;;;;;;8.73;5.45;;;;;;;29.94;42.95;96467.66;5014984;28;20082;-69
2023/08/15 11:20:41;;;;;;;9.98;4.70;;;;;;;30.22;42.96;96462.53;5014821;28;20052;-69
2023/08/15 11:23:11;;;;;;;6.70;4.32;;;;;;;30.42;41.78;96475.47;5014721;28;20053;-69
2023/08/15 11:25:38;;;;;;;7.30;4.38;;;;;;;30.27;41.07;96467.38;5016514;28;20054;-69
2023/08/15 11:28:06;;;;;;;7.88;4.10;;;;;;;30.21;43.00;96470.78;5014808;28;20053;-69
2023/08/15 11:30:35;;;;;;;10.30;4.35;;;;;;;30.16;42.67;96465.09;5014633;28;20049;-69
2023/08/15 11:33:03;;;;;;;7.28;4.00;;;;;;;30.14;43.45;96460.75;5014655;28;20045;-68
2023/08/15 11:35:30;;;;;;;8.40;4.43;;;;;;;30.04;44.07;96465.56;5014613;28;20076;-69